createdAt,value
2018-09-12T00:00:59.176Z,3.60
2018-09-12T00:03:27.335Z,3.20
2018-09-12T00:05:55.476Z,3.60
2018-09-12T00:08:23.615Z,4.20
2018-09-12T00:10:51.678Z,4.00
2018-09-12T00:13:19.738Z,8.53
2018-09-12T00:15:47.836Z,4.20
2018-09-12T00:18:16.300Z,3.27
2018-09-12T00:20:44.486Z,4.60
2018-09-12T00:23:12.561Z,4.50
2018-09-12T00:25:40.649Z,4.03
2018-09-12T00:28:08.786Z,5.60
2018-09-12T00:30:36.939Z,4.40
2018-09-12T00:33:05.016Z,4.70
2018-09-12T00:38:07.581Z,4.23
2018-09-12T00:40:35.677Z,4.40
2018-09-12T00:43:03.804Z,6.30
2018-09-12T00:45:31.912Z,4.70
2018-09-12T00:47:59.996Z,4.90
2018-09-12T00:50:28.108Z,3.70
2018-09-12T00:52:56.220Z,4.50
2018-09-12T00:55:24.374Z,3.77
2018-09-12T00:57:52.486Z,4.57
2018-09-12T01:00:20.595Z,4.37
2018-09-12T01:02:48.643Z,4.53
2018-09-12T01:05:16.769Z,4.47
2018-09-12T01:07:44.926Z,6.27
2018-09-12T01:10:13.057Z,7.40
2018-09-12T01:12:41.111Z,4.90
2018-09-12T01:15:09.249Z,6.47
2018-09-12T01:17:37.420Z,4.60
2018-09-12T01:20:05.540Z,3.83
2018-09-12T01:22:33.717Z,4.90
2018-09-12T01:25:01.828Z,3.83
2018-09-12T01:27:29.930Z,4.20
2018-09-12T01:29:58.011Z,4.47
2018-09-12T01:32:26.177Z,4.00
2018-09-12T01:34:54.304Z,5.10
2018-09-12T01:37:22.460Z,4.23
2018-09-12T01:39:50.603Z,4.23
2018-09-12T01:42:18.985Z,4.23
2018-09-12T01:44:47.121Z,4.77
2018-09-12T01:47:15.242Z,4.63
2018-09-12T01:49:43.349Z,4.73
2018-09-12T01:52:11.478Z,4.73
2018-09-12T01:54:39.631Z,4.63
2018-09-12T01:57:07.708Z,4.20
2018-09-12T01:59:35.833Z,5.15
2018-09-12T02:02:03.938Z,5.13
2018-09-12T02:04:32.054Z,5.10
2018-09-12T02:07:00.897Z,3.53
2018-09-12T02:09:29.039Z,5.72
2018-09-12T02:11:57.180Z,4.03
2018-09-12T02:14:25.284Z,4.47
2018-09-12T02:16:53.342Z,4.80
2018-09-12T02:19:21.460Z,4.50
2018-09-12T02:21:49.618Z,4.72
2018-09-12T02:24:17.715Z,4.63
2018-09-12T02:26:45.828Z,4.80
2018-09-12T02:29:13.985Z,4.90
2018-09-12T02:31:42.072Z,4.10
2018-09-12T02:34:10.172Z,4.73
2018-09-12T02:36:38.330Z,4.30
2018-09-12T02:39:08.408Z,4.05
2018-09-12T02:41:36.652Z,3.65
2018-09-12T02:44:04.750Z,4.07
2018-09-12T02:46:32.858Z,6.50
2018-09-12T02:49:00.972Z,4.33
2018-09-12T02:51:29.057Z,4.70
2018-09-12T02:53:57.161Z,4.60
2018-09-12T02:56:25.337Z,4.85
2018-09-12T02:58:53.469Z,5.07
2018-09-12T03:01:21.597Z,4.20
2018-09-12T03:03:49.765Z,4.20
2018-09-12T03:06:17.899Z,5.95
2018-09-12T03:08:46.033Z,4.70
2018-09-12T03:11:14.159Z,4.47
2018-09-12T03:13:42.269Z,4.73
2018-09-12T03:16:10.417Z,4.83
2018-09-12T03:18:38.540Z,4.25
2018-09-12T03:21:06.931Z,4.37
2018-09-12T03:23:35.415Z,5.17
2018-09-12T03:26:03.585Z,4.50
2018-09-12T03:28:31.693Z,5.15
2018-09-12T03:30:59.790Z,5.03
2018-09-12T03:33:27.899Z,4.70
2018-09-12T03:35:56.033Z,5.22
2018-09-12T03:38:24.102Z,4.27
2018-09-12T03:40:52.187Z,4.58
2018-09-12T03:43:20.399Z,4.20
2018-09-12T03:45:48.477Z,4.30
2018-09-12T03:48:16.788Z,5.22
2018-09-12T03:50:44.910Z,5.55
2018-09-12T03:53:13.025Z,5.03
2018-09-12T03:55:42.386Z,3.95
2018-09-12T03:58:10.623Z,4.30
2018-09-12T04:00:38.801Z,5.58
2018-09-12T04:03:07.133Z,3.85
2018-09-12T04:05:35.299Z,6.80
2018-09-12T04:08:03.422Z,4.00
2018-09-12T04:10:31.491Z,4.17
2018-09-12T04:12:59.600Z,4.33
2018-09-12T04:15:27.724Z,5.33
2018-09-12T04:17:55.888Z,4.17
2018-09-12T04:20:24.020Z,5.00
2018-09-12T04:22:52.215Z,5.42
2018-09-12T04:25:20.289Z,4.33
2018-09-12T04:27:48.509Z,5.08
2018-09-12T04:30:16.589Z,6.42
2018-09-12T04:32:44.765Z,4.78
2018-09-12T04:35:12.872Z,5.40
2018-09-12T04:37:40.971Z,4.50
2018-09-12T04:40:09.148Z,3.72
2018-09-12T04:42:37.457Z,5.50
2018-09-12T04:45:05.781Z,4.10
2018-09-12T04:47:33.887Z,4.77
2018-09-12T04:50:06.954Z,5.75
2018-09-12T04:52:35.063Z,4.17
2018-09-12T04:55:03.216Z,5.17
2018-09-12T04:57:32.486Z,5.30
2018-09-12T05:00:00.631Z,4.30
2018-09-12T05:02:28.869Z,4.67
2018-09-12T05:04:57.054Z,5.70
2018-09-12T05:07:25.330Z,4.40
2018-09-12T05:09:53.540Z,4.97
2018-09-12T05:12:21.850Z,4.20
2018-09-12T05:14:50.017Z,4.40
2018-09-12T05:17:18.148Z,7.20
2018-09-12T05:19:46.387Z,6.58
2018-09-12T05:22:15.464Z,11.45
2018-09-12T05:24:43.678Z,17.02
2018-09-12T05:27:11.747Z,22.30
2018-09-12T05:29:39.868Z,23.70
2018-09-12T05:32:08.034Z,21.47
2018-09-12T05:34:42.871Z,18.37
2018-09-12T05:37:11.014Z,21.00
2018-09-12T05:39:39.129Z,12.73
2018-09-12T05:42:07.269Z,12.40
2018-09-12T05:44:35.389Z,18.03
2018-09-12T05:47:03.677Z,12.90
2018-09-12T05:49:31.828Z,10.73
2018-09-12T05:51:59.949Z,14.33
2018-09-12T05:54:28.061Z,15.77
2018-09-12T05:56:56.195Z,9.33
2018-09-12T05:59:24.397Z,5.60
2018-09-12T06:01:52.544Z,5.00
2018-09-12T06:04:20.681Z,6.60
2018-09-12T06:06:49.001Z,6.80
2018-09-12T06:09:17.077Z,6.40
2018-09-12T06:11:45.342Z,5.67
2018-09-12T06:14:14.077Z,3.80
2018-09-12T06:16:42.241Z,8.83
2018-09-12T06:19:10.368Z,4.13
2018-09-12T06:21:38.479Z,5.27
2018-09-12T06:24:07.298Z,6.90
2018-09-12T06:26:35.436Z,6.10
2018-09-12T06:29:03.605Z,5.23
2018-09-12T06:31:31.744Z,4.87
2018-09-12T06:33:59.864Z,6.80
2018-09-12T06:36:28.021Z,5.90
2018-09-12T06:38:56.112Z,4.00
2018-09-12T06:41:24.387Z,5.73
2018-09-12T06:43:52.569Z,5.47
2018-09-12T06:46:20.685Z,5.13
2018-09-12T06:48:48.784Z,6.63
2018-09-12T06:51:16.892Z,5.10
2018-09-12T06:53:44.991Z,4.70
2018-09-12T06:56:13.434Z,4.30
2018-09-12T06:58:41.492Z,4.37
2018-09-12T07:01:10.452Z,5.93
2018-09-12T07:03:38.504Z,5.70
2018-09-12T07:06:06.633Z,4.43
2018-09-12T07:08:34.720Z,7.10
2018-09-12T07:11:02.811Z,7.50
2018-09-12T07:13:30.949Z,5.57
2018-09-12T07:15:59.101Z,5.20
2018-09-12T07:18:27.234Z,4.43
2018-09-12T07:20:55.320Z,4.07
2018-09-12T07:23:23.418Z,5.37
2018-09-12T07:25:51.582Z,3.90
2018-09-12T07:28:19.639Z,5.80
2018-09-12T07:30:47.696Z,4.60
2018-09-12T07:33:15.825Z,4.47
2018-09-12T07:35:43.888Z,6.70
2018-09-12T07:38:12.018Z,7.17
2018-09-12T07:40:40.111Z,4.97
2018-09-12T07:43:08.228Z,4.63
2018-09-12T07:45:36.330Z,4.30
2018-09-12T07:48:04.430Z,6.73
2018-09-12T07:50:32.577Z,6.10
2018-09-12T07:53:00.678Z,11.17
2018-09-12T07:55:28.786Z,11.97
2018-09-12T07:57:56.852Z,4.83
2018-09-12T08:00:24.993Z,9.13
2018-09-12T08:02:53.024Z,6.40
2018-09-12T08:05:23.339Z,5.87
2018-09-12T08:07:51.429Z,4.70
2018-09-12T08:10:19.516Z,5.00
2018-09-12T08:12:47.585Z,4.57
2018-09-12T08:15:15.659Z,4.90
2018-09-12T08:17:43.795Z,6.43
2018-09-12T08:20:11.901Z,3.20
2018-09-12T08:22:40.007Z,4.93
2018-09-12T08:25:08.117Z,3.90
2018-09-12T08:27:36.177Z,4.90
2018-09-12T08:30:04.377Z,5.13
2018-09-12T08:32:32.543Z,5.50
2018-09-12T08:35:00.666Z,4.40
2018-09-12T08:37:28.798Z,4.77
2018-09-12T08:39:56.891Z,5.53
2018-09-12T08:42:25.043Z,5.87
2018-09-12T08:44:53.158Z,5.20
2018-09-12T08:47:21.258Z,5.53
2018-09-12T08:49:49.357Z,3.47
2018-09-12T08:52:17.498Z,4.07
2018-09-12T08:54:45.600Z,3.27
2018-09-12T08:57:13.696Z,3.70
2018-09-12T08:59:41.833Z,3.87
2018-09-12T09:02:09.931Z,18.43
2018-09-12T09:04:38.160Z,7.70
2018-09-12T09:07:06.269Z,3.30
2018-09-12T09:09:34.395Z,3.30
2018-09-12T09:12:02.561Z,3.63
2018-09-12T09:14:30.682Z,4.53
2018-09-12T09:16:58.771Z,4.10
2018-09-12T09:19:27.009Z,3.57
2018-09-12T09:21:56.799Z,4.53
2018-09-12T09:24:24.913Z,4.53
2018-09-12T09:26:53.037Z,9.67
2018-09-12T09:29:21.158Z,4.10
2018-09-12T09:31:49.207Z,3.40
2018-09-12T09:34:17.358Z,3.90
2018-09-12T09:36:45.519Z,3.27
2018-09-12T09:39:13.640Z,24.20
2018-09-12T09:41:42.149Z,4.70
2018-09-12T09:44:10.291Z,3.30
2018-09-12T09:46:38.422Z,6.43
2018-09-12T09:49:06.527Z,6.27
2018-09-12T09:51:34.608Z,4.10
2018-09-12T09:54:02.752Z,3.80
2018-09-12T09:56:30.913Z,4.10
2018-09-12T09:58:59.073Z,3.87
2018-09-12T10:01:32.592Z,4.00
2018-09-12T10:04:06.026Z,6.27
2018-09-12T10:06:39.664Z,5.93
2018-09-12T10:09:13.949Z,3.73
2018-09-12T10:11:42.404Z,17.63
2018-09-12T10:14:10.498Z,4.40
2018-09-12T10:16:38.625Z,3.50
2018-09-12T10:19:06.752Z,5.70
2018-09-12T10:21:34.874Z,5.70
2018-09-12T10:24:02.977Z,4.00
2018-09-12T10:26:31.169Z,3.60
2018-09-12T10:28:59.314Z,3.93
2018-09-12T10:31:27.425Z,6.03
2018-09-12T10:33:55.534Z,5.83
2018-09-12T10:36:23.611Z,4.47
2018-09-12T10:38:51.699Z,5.20
2018-09-12T10:41:19.800Z,4.43
2018-09-12T10:43:47.975Z,6.53
2018-09-12T10:46:16.115Z,4.20
2018-09-12T10:48:44.255Z,3.40
2018-09-12T10:51:12.301Z,4.80
2018-09-12T10:53:40.404Z,6.70
2018-09-12T10:56:08.536Z,3.33
2018-09-12T10:58:36.640Z,6.90
2018-09-12T11:01:04.856Z,3.70
2018-09-12T11:03:33.005Z,3.60
2018-09-12T11:06:01.132Z,4.00
2018-09-12T11:08:29.352Z,4.00
2018-09-12T11:10:57.509Z,3.27
2018-09-12T11:13:25.630Z,4.63
2018-09-12T11:15:53.730Z,3.27
2018-09-12T11:18:21.805Z,3.67
2018-09-12T11:20:49.961Z,3.53
2018-09-12T11:23:18.112Z,4.03
2018-09-12T11:25:46.258Z,6.40
2018-09-12T11:28:14.360Z,4.00
2018-09-12T11:30:42.485Z,3.83
2018-09-12T11:33:10.585Z,3.73
2018-09-12T11:35:38.697Z,5.43
2018-09-12T11:38:06.854Z,3.33
2018-09-12T11:40:35.009Z,5.80
2018-09-12T11:43:03.125Z,3.13
2018-09-12T11:45:31.278Z,3.00
2018-09-12T11:47:59.434Z,3.80
2018-09-12T11:50:27.565Z,3.70
2018-09-12T11:52:55.694Z,3.53
2018-09-12T11:55:23.827Z,4.00
2018-09-12T11:57:51.967Z,4.60
2018-09-12T12:00:20.123Z,3.20
2018-09-12T12:02:48.225Z,4.63
2018-09-12T12:05:16.348Z,4.10
2018-09-12T12:07:44.528Z,4.80
2018-09-12T12:10:12.679Z,5.43
2018-09-12T12:12:40.850Z,3.17
2018-09-12T12:15:09.035Z,3.30
2018-09-12T12:17:37.252Z,4.90
2018-09-12T12:20:05.677Z,4.57
2018-09-12T12:22:33.920Z,5.13
2018-09-12T12:25:02.142Z,4.50
2018-09-12T12:27:30.389Z,3.70
2018-09-12T12:29:58.559Z,3.60
2018-09-12T12:32:26.705Z,4.43
2018-09-12T12:34:54.795Z,2.90
2018-09-12T12:37:22.957Z,3.27
2018-09-12T12:39:51.084Z,3.63
2018-09-12T12:42:19.209Z,3.00
2018-09-12T12:44:47.363Z,4.60
2018-09-12T12:47:15.452Z,3.27
2018-09-12T12:49:43.598Z,3.30
2018-09-12T12:52:11.815Z,4.07
2018-09-12T12:54:40.303Z,6.17
2018-09-12T12:57:08.405Z,7.73
2018-09-12T12:59:36.500Z,4.03
2018-09-12T13:02:04.633Z,5.00
2018-09-12T13:04:32.786Z,4.20
2018-09-12T13:07:00.910Z,7.17
2018-09-12T13:09:29.036Z,6.70
2018-09-12T13:11:57.197Z,5.03
2018-09-12T13:14:25.279Z,3.37
2018-09-12T13:16:53.409Z,9.03
2018-09-12T13:19:21.579Z,5.77
2018-09-12T13:21:49.857Z,4.10
2018-09-12T13:24:17.822Z,3.47
2018-09-12T13:26:45.911Z,5.10
2018-09-12T13:29:14.043Z,3.40
2018-09-12T13:31:42.145Z,4.33
2018-09-12T13:34:10.324Z,3.60
2018-09-12T13:36:38.432Z,3.30
2018-09-12T13:39:09.945Z,4.00
2018-09-12T13:41:38.054Z,4.87
2018-09-12T13:44:06.237Z,5.50
2018-09-12T13:46:34.409Z,3.93
2018-09-12T13:49:02.785Z,3.80
2018-09-12T13:51:30.871Z,4.40
2018-09-12T13:53:58.993Z,7.20
2018-09-12T13:56:27.146Z,3.80
2018-09-12T13:58:55.405Z,3.10
2018-09-12T14:01:23.533Z,3.63
2018-09-12T14:03:51.690Z,4.33
2018-09-12T14:06:19.833Z,3.77
2018-09-12T14:08:48.019Z,4.20
2018-09-12T14:11:16.132Z,3.27
2018-09-12T14:13:44.529Z,3.33
2018-09-12T14:16:12.713Z,5.53
2018-09-12T14:18:41.015Z,3.60
2018-09-12T14:21:09.268Z,3.97
2018-09-12T14:23:37.591Z,4.10
2018-09-12T14:33:08.996Z,3.83
2018-09-12T14:35:37.166Z,4.17
2018-09-12T14:38:05.256Z,4.60
2018-09-12T14:40:33.414Z,4.43
2018-09-12T14:43:01.546Z,4.60
2018-09-12T14:45:29.902Z,5.20
2018-09-12T14:47:58.093Z,4.13
2018-09-12T14:50:26.225Z,3.90
2018-09-12T14:52:54.340Z,3.33
2018-09-12T14:55:22.505Z,2.93
2018-09-12T14:57:50.695Z,6.30
2018-09-12T15:00:24.341Z,3.10
2018-09-12T15:02:52.475Z,3.67
2018-09-12T15:05:21.859Z,2.60
2018-09-12T15:07:50.036Z,3.30
2018-09-12T15:10:18.465Z,4.40
2018-09-12T15:12:47.240Z,5.40
2018-09-12T15:15:15.937Z,3.50
2018-09-12T15:17:44.971Z,4.37
2018-09-12T15:20:13.456Z,3.17
2018-09-12T15:22:41.974Z,3.10
2018-09-12T15:25:10.124Z,3.63
2018-09-12T15:27:38.305Z,3.60
2018-09-12T15:30:06.452Z,4.53
2018-09-12T15:32:34.560Z,3.83
2018-09-12T15:35:02.688Z,4.17
2018-09-12T15:37:30.814Z,5.57
2018-09-12T15:39:58.902Z,3.00
2018-09-12T15:42:27.278Z,3.20
2018-09-12T15:44:55.409Z,3.50
2018-09-12T15:47:24.062Z,3.40
2018-09-12T15:49:52.184Z,4.40
2018-09-12T15:52:20.842Z,4.80
2018-09-12T15:54:49.034Z,3.77
2018-09-12T15:57:17.124Z,3.40
2018-09-12T15:59:45.376Z,3.97
2018-09-12T16:02:13.784Z,3.13
2018-09-12T16:04:42.053Z,3.00
2018-09-12T16:07:10.169Z,3.10
2018-09-12T16:09:38.329Z,4.33
2018-09-12T16:12:06.446Z,3.53
2018-09-12T16:14:34.577Z,3.47
2018-09-12T16:17:02.756Z,3.40
2018-09-12T16:19:30.950Z,2.93
2018-09-12T16:21:59.068Z,4.43
2018-09-12T16:24:27.168Z,3.40
2018-09-12T16:26:55.309Z,3.47
2018-09-12T16:29:23.490Z,4.87
2018-09-12T16:31:51.632Z,3.77
2018-09-12T16:34:19.859Z,3.60
2018-09-12T16:36:48.154Z,4.70
2018-09-12T16:39:16.531Z,3.60
2018-09-12T16:41:44.714Z,3.47
2018-09-12T16:44:13.005Z,3.40
2018-09-12T16:46:42.213Z,4.50
2018-09-12T16:49:10.361Z,3.37
2018-09-12T16:51:38.655Z,6.20
2018-09-12T16:54:06.753Z,4.80
2018-09-12T16:56:34.957Z,3.60
2018-09-12T16:59:03.227Z,5.40
2018-09-12T17:01:31.584Z,3.13
2018-09-12T17:03:59.908Z,5.53
2018-09-12T17:06:28.116Z,3.40
2018-09-12T17:08:56.551Z,3.63
2018-09-12T17:11:24.674Z,4.87
2018-09-12T17:13:52.813Z,4.37
2018-09-12T17:16:21.282Z,3.23
2018-09-12T17:18:49.436Z,4.03
2018-09-12T17:21:17.594Z,3.43
2018-09-12T17:23:46.803Z,3.23
2018-09-12T17:26:15.063Z,3.20
2018-09-12T17:28:43.378Z,3.47
2018-09-12T17:31:11.996Z,3.70
2018-09-12T17:33:40.381Z,3.70
2018-09-12T17:36:08.553Z,3.73
2018-09-12T17:38:37.249Z,3.93
2018-09-12T17:41:05.591Z,4.10
2018-09-12T17:43:33.831Z,4.23
2018-09-12T17:48:38.465Z,3.93
2018-09-12T17:51:06.798Z,3.40
2018-09-12T17:53:35.015Z,3.67
2018-09-12T17:56:03.207Z,3.13
2018-09-12T17:58:31.308Z,4.10
2018-09-12T18:00:59.548Z,2.83
2018-09-12T18:03:27.701Z,4.53
2018-09-12T18:05:55.931Z,3.67
2018-09-12T18:08:24.039Z,3.00
2018-09-12T18:10:52.150Z,3.80
2018-09-12T18:13:20.333Z,3.30
2018-09-12T18:15:48.584Z,3.80
2018-09-12T18:18:16.773Z,3.90
2018-09-12T18:20:44.921Z,5.47
2018-09-12T18:23:13.291Z,3.70
2018-09-12T18:25:41.470Z,3.70
2018-09-12T18:28:09.710Z,4.00
2018-09-12T18:30:37.940Z,3.50
2018-09-12T18:33:06.047Z,3.97
2018-09-12T18:35:34.647Z,4.20
2018-09-12T18:38:02.793Z,3.97
2018-09-12T18:40:30.937Z,3.90
2018-09-12T18:42:59.101Z,3.70
2018-09-12T18:45:27.225Z,3.87
2018-09-12T18:47:55.337Z,4.03
2018-09-12T18:50:23.873Z,4.50
2018-09-12T18:52:52.108Z,6.83
2018-09-12T18:55:20.289Z,6.77
2018-09-12T18:57:48.519Z,4.53
2018-09-12T19:00:16.656Z,3.93
2018-09-12T19:02:44.746Z,5.20
2018-09-12T19:05:12.921Z,4.33
2018-09-12T19:07:41.219Z,4.57
2018-09-12T19:10:09.504Z,5.47
2018-09-12T19:12:37.647Z,4.53
2018-09-12T19:15:05.863Z,5.47
2018-09-12T19:17:34.040Z,4.10
2018-09-12T19:20:02.142Z,6.17
2018-09-12T19:22:30.277Z,4.80
2018-09-12T19:24:58.369Z,6.80
2018-09-12T19:27:26.432Z,7.70
2018-09-12T19:29:54.569Z,5.47
2018-09-12T19:32:22.664Z,7.77
2018-09-12T19:34:50.880Z,5.20
2018-09-12T19:37:19.002Z,7.03
2018-09-12T19:39:47.101Z,6.00
2018-09-12T19:42:15.245Z,7.30
2018-09-12T19:44:43.357Z,7.40
2018-09-12T19:47:11.480Z,7.47
2018-09-12T19:49:39.556Z,7.00
2018-09-12T19:52:07.726Z,5.17
2018-09-12T19:54:35.851Z,8.43
2018-09-12T19:57:03.986Z,7.50
2018-09-12T19:59:32.108Z,7.50
2018-09-12T20:02:00.238Z,6.83
2018-09-12T20:04:28.397Z,6.77
2018-09-12T20:06:56.646Z,8.77
2018-09-12T20:09:24.754Z,5.90
2018-09-12T20:11:53.518Z,8.77
2018-09-12T20:14:21.677Z,6.33
2018-09-12T20:16:49.859Z,5.30
2018-09-12T20:19:18.073Z,5.50
2018-09-12T20:21:46.224Z,4.67
2018-09-12T20:24:14.408Z,5.13
2018-09-12T20:26:42.564Z,5.33
2018-09-12T20:29:11.118Z,5.10
2018-09-12T20:31:39.254Z,5.90
2018-09-12T20:34:07.436Z,5.60
2018-09-12T20:36:35.695Z,5.40
2018-09-12T20:39:05.948Z,5.60
2018-09-12T20:41:34.074Z,5.20
2018-09-12T20:44:02.328Z,5.43
2018-09-12T20:46:30.464Z,5.53
2018-09-12T20:48:58.609Z,5.20
2018-09-12T20:51:26.791Z,4.97
2018-09-12T20:53:55.246Z,4.97
2018-09-12T20:56:23.398Z,5.37
2018-09-12T20:58:51.677Z,5.03
2018-09-12T21:01:20.239Z,5.90
2018-09-12T21:03:48.420Z,6.33
2018-09-12T21:06:16.492Z,7.60
2018-09-12T21:08:44.641Z,7.67
2018-09-12T21:11:12.907Z,5.63
2018-09-12T21:13:40.986Z,5.90
2018-09-12T21:16:09.086Z,7.40
2018-09-12T21:18:37.284Z,5.97
2018-09-12T21:21:05.459Z,8.30
2018-09-12T21:23:33.664Z,6.07
2018-09-12T21:26:01.897Z,7.40
2018-09-12T21:28:30.184Z,7.33
2018-09-12T21:30:58.302Z,6.53
2018-09-12T21:33:26.453Z,6.43
2018-09-12T21:35:54.621Z,7.33
2018-09-12T21:38:22.808Z,7.03
2018-09-12T21:40:51.086Z,6.90
2018-09-12T21:43:19.630Z,7.67
2018-09-12T21:45:47.757Z,6.90
2018-09-12T21:48:15.865Z,6.63
2018-09-12T21:50:44.058Z,6.33
2018-09-12T21:53:12.426Z,7.10
2018-09-12T21:55:41.723Z,7.20
2018-09-12T21:58:11.364Z,6.80
2018-09-12T22:00:40.988Z,7.73
2018-09-12T22:03:09.953Z,7.53
2018-09-12T22:05:39.205Z,7.50
2018-09-12T22:08:07.577Z,7.57
2018-09-12T22:10:35.849Z,6.53
2018-09-12T22:13:04.176Z,7.00
2018-09-12T22:15:32.315Z,7.70
2018-09-12T22:18:00.427Z,7.27
2018-09-12T22:20:29.033Z,6.27
2018-09-12T22:22:57.182Z,8.10
2018-09-12T22:25:25.362Z,7.43
2018-09-12T22:27:53.424Z,8.43
2018-09-12T22:30:21.640Z,7.60
2018-09-12T22:32:49.789Z,8.33
2018-09-12T22:35:17.890Z,7.43
2018-09-12T22:37:45.987Z,9.23
2018-09-12T22:40:14.161Z,7.97
2018-09-12T22:42:42.256Z,7.57
2018-09-12T22:45:10.372Z,10.57
2018-09-12T22:47:38.485Z,8.00
2018-09-12T22:50:06.775Z,9.57
2018-09-12T22:52:34.846Z,9.50
2018-09-12T22:55:02.994Z,8.10
2018-09-12T22:57:31.137Z,8.77
2018-09-12T22:59:59.240Z,7.60
2018-09-12T23:02:27.356Z,8.27
2018-09-12T23:04:55.462Z,7.50
2018-09-12T23:07:23.589Z,8.83
2018-09-12T23:09:51.686Z,8.40
2018-09-12T23:12:19.804Z,9.07
2018-09-12T23:14:47.901Z,9.00
2018-09-12T23:17:15.970Z,7.67
2018-09-12T23:19:44.085Z,8.37
2018-09-12T23:22:12.248Z,8.60
2018-09-12T23:24:40.444Z,9.37
2018-09-12T23:27:08.594Z,8.13
2018-09-12T23:29:36.707Z,10.60
2018-09-12T23:32:04.800Z,9.10
2018-09-12T23:34:32.867Z,7.83
2018-09-12T23:37:00.990Z,8.20
2018-09-12T23:39:29.064Z,9.40
2018-09-12T23:41:57.165Z,9.87
2018-09-12T23:44:25.324Z,8.00
2018-09-12T23:46:53.424Z,8.20
2018-09-12T23:49:21.540Z,8.87
2018-09-12T23:51:49.659Z,8.77
2018-09-12T23:54:17.743Z,8.97
2018-09-12T23:56:45.842Z,8.83
2018-09-12T23:59:13.922Z,8.80
